createdAt,value
2018-06-10T00:00:59.020Z,18.70
2018-06-10T00:03:28.229Z,18.70
2018-06-10T00:05:57.290Z,18.70
2018-06-10T00:10:55.088Z,18.60
2018-06-10T00:13:24.439Z,18.60
2018-06-10T00:15:53.513Z,18.60
2018-06-10T00:18:22.855Z,18.60
2018-06-10T00:20:52.051Z,18.50
2018-06-10T00:28:24.190Z,18.50
2018-06-10T00:30:53.346Z,18.50
2018-06-10T00:33:22.539Z,18.50
2018-06-10T00:35:51.687Z,18.60
2018-06-10T00:38:21.884Z,18.50
2018-06-10T00:40:51.150Z,18.50
2018-06-10T00:43:20.361Z,18.40
2018-06-10T00:45:49.439Z,18.40
2018-06-10T00:48:18.675Z,18.40
2018-06-10T00:50:47.846Z,18.40
2018-06-10T00:53:17.103Z,18.40
2018-06-10T00:55:47.400Z,18.40
2018-06-10T00:58:16.555Z,18.30
2018-06-10T01:00:45.862Z,18.30
2018-06-10T01:03:15.171Z,18.30
2018-06-10T01:05:44.299Z,18.30
2018-06-10T01:08:13.383Z,18.40
2018-06-10T01:10:42.572Z,18.30
2018-06-10T01:15:40.702Z,18.40
2018-06-10T01:18:10.004Z,18.40
2018-06-10T01:20:39.217Z,18.50
2018-06-10T01:23:08.587Z,18.60
2018-06-10T01:25:37.737Z,18.60
2018-06-10T01:28:06.980Z,18.70
2018-06-10T01:30:36.119Z,18.80
2018-06-10T01:33:05.427Z,18.90
2018-06-10T01:35:34.506Z,18.90
2018-06-10T01:38:03.820Z,18.90
2018-06-10T01:40:33.369Z,18.90
2018-06-10T01:43:02.593Z,18.90
2018-06-10T01:45:31.926Z,18.90
2018-06-10T01:48:01.093Z,18.90
2018-06-10T01:50:30.307Z,18.90
2018-06-10T01:52:59.535Z,18.80
2018-06-10T01:55:28.838Z,18.80
2018-06-10T01:57:57.919Z,18.60
2018-06-10T02:00:28.146Z,18.50
2018-06-10T02:02:57.386Z,18.40
2018-06-10T02:05:26.471Z,18.50
2018-06-10T02:10:24.659Z,18.40
2018-06-10T02:12:53.941Z,18.50
2018-06-10T02:15:23.238Z,18.40
2018-06-10T02:17:52.321Z,18.50
2018-06-10T02:20:21.940Z,18.50
2018-06-10T02:22:51.085Z,18.50
2018-06-10T02:25:20.411Z,18.40
2018-06-10T02:27:49.756Z,18.40
2018-06-10T02:30:19.063Z,18.40
2018-06-10T02:32:48.765Z,18.40
2018-06-10T02:35:18.173Z,18.40
2018-06-10T02:37:48.093Z,18.40
2018-06-10T02:40:17.387Z,18.40
2018-06-10T02:45:15.371Z,18.30
2018-06-10T02:47:44.484Z,18.40
2018-06-10T02:50:13.571Z,18.40
2018-06-10T02:52:42.692Z,18.40
2018-06-10T02:55:12.122Z,18.40
2018-06-10T02:57:41.173Z,18.40
2018-06-10T03:00:11.130Z,18.50
2018-06-10T03:02:40.334Z,18.60
2018-06-10T03:05:09.596Z,18.60
2018-06-10T03:07:41.587Z,18.60
2018-06-10T03:10:10.751Z,18.60
2018-06-10T03:12:40.087Z,18.70
2018-06-10T03:15:12.804Z,18.70
2018-06-10T03:20:16.000Z,18.50
2018-06-10T03:22:45.163Z,18.40
2018-06-10T03:25:14.382Z,18.30
2018-06-10T03:27:43.678Z,18.20
2018-06-10T03:30:12.766Z,18.10
2018-06-10T03:35:10.863Z,18.00
2018-06-10T03:37:40.010Z,18.00
2018-06-10T03:42:37.959Z,17.80
2018-06-10T03:45:07.050Z,17.80
2018-06-10T03:47:36.222Z,17.70
2018-06-10T03:50:05.569Z,17.60
2018-06-10T03:52:34.668Z,17.60
2018-06-10T03:55:03.993Z,17.60
2018-06-10T04:00:01.854Z,17.60
2018-06-10T04:02:30.977Z,17.60
2018-06-10T04:05:00.100Z,17.60
2018-06-10T04:07:29.328Z,17.60
2018-06-10T04:09:58.485Z,17.60
2018-06-10T04:12:27.746Z,17.60
2018-06-10T04:14:57.009Z,17.60
2018-06-10T04:17:26.212Z,17.60
2018-06-10T04:19:56.325Z,17.70
2018-06-10T04:22:25.491Z,17.60
2018-06-10T04:24:54.821Z,17.70
2018-06-10T04:27:23.954Z,17.60
2018-06-10T04:29:53.373Z,17.70
2018-06-10T04:32:22.642Z,17.70
2018-06-10T04:34:52.750Z,17.70
2018-06-10T04:37:21.949Z,17.80
2018-06-10T04:39:51.098Z,17.90
2018-06-10T04:42:20.425Z,18.00
2018-06-10T04:44:49.593Z,18.10
2018-06-10T04:47:18.697Z,18.20
2018-06-10T04:49:48.598Z,18.20
2018-06-10T04:52:17.925Z,18.30
2018-06-10T04:54:47.173Z,18.40
2018-06-10T04:57:16.880Z,18.40
2018-06-10T04:59:46.295Z,18.50
2018-06-10T05:02:15.417Z,18.50
2018-06-10T05:04:44.501Z,18.50
2018-06-10T05:07:13.699Z,18.50
2018-06-10T05:09:42.863Z,18.60
2018-06-10T05:12:11.961Z,18.60
2018-06-10T05:14:41.262Z,18.70
2018-06-10T05:17:10.439Z,18.70
2018-06-10T05:19:39.641Z,18.70
2018-06-10T05:22:08.972Z,18.70
2018-06-10T05:24:38.289Z,18.70
2018-06-10T05:27:07.364Z,18.70
2018-06-10T05:29:36.589Z,18.70
2018-06-10T05:32:05.815Z,18.90
2018-06-10T05:34:35.026Z,18.90
2018-06-10T05:37:04.331Z,19.00
2018-06-10T05:39:33.532Z,19.10
2018-06-10T05:42:02.635Z,19.20
2018-06-10T05:44:31.779Z,19.20
2018-06-10T05:47:02.975Z,19.20
2018-06-10T05:49:33.410Z,19.30
2018-06-10T05:52:03.791Z,19.30
2018-06-10T05:54:32.991Z,19.30
2018-06-10T05:57:02.540Z,19.40
2018-06-10T05:59:31.854Z,19.50
2018-06-10T06:02:01.019Z,19.60
2018-06-10T06:04:30.174Z,19.60
2018-06-10T06:06:59.959Z,19.70
2018-06-10T06:09:29.033Z,19.80
2018-06-10T06:11:58.281Z,19.90
2018-06-10T06:14:27.551Z,19.90
2018-06-10T06:16:56.745Z,20.10
2018-06-10T06:19:25.990Z,20.40
2018-06-10T06:21:55.181Z,20.50
2018-06-10T06:24:24.407Z,20.80
2018-06-10T06:26:53.646Z,21.20
2018-06-10T06:29:22.852Z,21.60
2018-06-10T06:31:52.712Z,21.90
2018-06-10T06:34:21.952Z,22.10
2018-06-10T06:36:51.145Z,22.40
2018-06-10T06:39:20.385Z,22.70
2018-06-10T06:41:49.577Z,23.00
2018-06-10T06:44:18.749Z,23.00
2018-06-10T06:46:47.966Z,22.80
2018-06-10T06:49:17.183Z,22.70
2018-06-10T06:51:46.430Z,22.60
2018-06-10T06:54:15.582Z,22.40
2018-06-10T06:56:45.458Z,22.20
2018-06-10T06:59:14.487Z,22.10
2018-06-10T07:01:43.654Z,21.80
2018-06-10T07:04:12.953Z,21.70
2018-06-10T07:06:42.132Z,21.80
2018-06-10T07:09:11.316Z,21.90
2018-06-10T07:11:40.768Z,21.90
2018-06-10T07:14:10.036Z,22.00
2018-06-10T07:16:39.528Z,22.10
2018-06-10T07:19:08.873Z,22.10
2018-06-10T07:21:38.648Z,22.00
2018-06-10T07:24:07.851Z,21.80
2018-06-10T07:26:37.031Z,21.90
2018-06-10T07:29:06.424Z,22.00
2018-06-10T07:31:35.696Z,22.30
2018-06-10T07:34:04.964Z,22.50
2018-06-10T07:36:34.326Z,22.80
2018-06-10T07:39:04.870Z,22.80
2018-06-10T07:41:34.102Z,22.80
2018-06-10T07:44:03.737Z,22.80
2018-06-10T07:49:01.733Z,23.00
2018-06-10T07:51:31.373Z,23.10
2018-06-10T07:54:00.566Z,23.10
2018-06-10T07:56:29.732Z,23.00
2018-06-10T07:58:59.028Z,22.70
2018-06-10T08:01:28.937Z,22.70
2018-06-10T08:03:58.081Z,22.70
2018-06-10T08:06:27.354Z,22.50
2018-06-10T08:08:56.652Z,22.40
2018-06-10T08:11:25.943Z,22.40
2018-06-10T08:13:55.172Z,22.50
2018-06-10T08:16:24.539Z,22.70
2018-06-10T08:18:54.378Z,22.80
2018-06-10T08:21:23.651Z,22.70
2018-06-10T08:23:53.637Z,22.60
2018-06-10T08:26:24.307Z,22.50
2018-06-10T08:28:53.490Z,22.60
2018-06-10T08:31:22.589Z,22.70
2018-06-10T08:33:51.781Z,22.80
2018-06-10T08:41:18.216Z,22.90
2018-06-10T08:43:47.424Z,22.80
2018-06-10T08:46:16.724Z,22.90
2018-06-10T08:48:45.910Z,22.80
2018-06-10T08:51:15.013Z,23.00
2018-06-10T08:53:44.260Z,23.30
2018-06-10T08:56:13.572Z,23.50
2018-06-10T08:58:42.970Z,23.60
2018-06-10T09:01:12.611Z,23.70
2018-06-10T09:03:41.707Z,23.60
2018-06-10T09:06:10.975Z,23.60
2018-06-10T09:08:41.353Z,23.50
2018-06-10T09:11:10.836Z,23.60
2018-06-10T09:13:41.057Z,23.60
2018-06-10T09:16:10.475Z,23.70
2018-06-10T09:18:40.086Z,23.90
2018-06-10T09:21:09.192Z,23.90
2018-06-10T09:26:07.154Z,23.90
2018-06-10T09:28:36.573Z,23.90
2018-06-10T09:31:06.472Z,24.00
2018-06-10T09:33:36.056Z,24.00
2018-06-10T09:36:05.327Z,24.20
2018-06-10T09:38:34.472Z,24.30
2018-06-10T09:41:03.658Z,24.60
2018-06-10T09:43:33.940Z,24.80
2018-06-10T09:46:08.811Z,25.10
2018-06-10T09:48:39.649Z,25.20
2018-06-10T09:51:10.798Z,24.90
2018-06-10T09:56:10.890Z,24.40
2018-06-10T09:58:40.014Z,24.30
2018-06-10T10:01:09.565Z,24.20
2018-06-10T10:03:38.725Z,24.30
2018-06-10T10:06:08.227Z,24.40
2018-06-10T10:08:37.627Z,24.40
2018-06-10T10:11:07.069Z,24.60
2018-06-10T10:13:36.332Z,24.80
2018-06-10T10:16:05.459Z,25.00
2018-06-10T10:18:35.145Z,25.20
2018-06-10T10:21:04.236Z,25.60
2018-06-10T10:23:33.541Z,25.80
2018-06-10T10:26:02.736Z,26.20
2018-06-10T10:28:32.171Z,26.60
2018-06-10T10:31:01.320Z,26.70
2018-06-10T10:33:31.136Z,26.70
2018-06-10T10:36:00.242Z,26.80
2018-06-10T10:40:58.039Z,26.90
2018-06-10T10:43:27.321Z,26.80
2018-06-10T10:45:56.752Z,26.90
2018-06-10T10:48:26.083Z,27.00
2018-06-10T10:50:55.358Z,27.20
2018-06-10T10:53:24.511Z,27.50
2018-06-10T10:55:53.783Z,27.70
2018-06-10T10:58:23.001Z,27.60
2018-06-10T11:00:52.523Z,27.50
2018-06-10T11:03:21.759Z,27.40
2018-06-10T11:05:50.966Z,27.30
2018-06-10T11:08:20.143Z,27.20
2018-06-10T11:10:49.425Z,27.10
2018-06-10T11:13:18.726Z,27.20
2018-06-10T11:15:47.822Z,27.40
2018-06-10T11:18:17.099Z,27.80
2018-06-10T11:20:46.421Z,28.10
2018-06-10T11:23:15.556Z,28.20
2018-06-10T11:25:44.796Z,28.30
2018-06-10T11:28:14.011Z,28.20
2018-06-10T11:30:43.175Z,28.10
2018-06-10T11:35:41.315Z,27.50
2018-06-10T11:38:10.633Z,27.30
2018-06-10T11:40:39.697Z,27.10
2018-06-10T11:43:09.257Z,27.10
2018-06-10T11:45:38.631Z,27.00
2018-06-10T11:48:07.761Z,27.20
2018-06-10T11:50:36.904Z,27.40
2018-06-10T11:53:07.392Z,27.40
2018-06-10T11:55:36.547Z,27.40
2018-06-10T11:58:05.771Z,27.50
2018-06-10T12:00:34.811Z,27.60
2018-06-10T12:03:04.238Z,27.90
2018-06-10T12:05:33.447Z,28.30
2018-06-10T12:08:02.554Z,28.50
2018-06-10T12:10:31.771Z,28.60
2018-06-10T12:13:01.821Z,28.70
2018-06-10T12:15:31.129Z,28.60
2018-06-10T12:18:00.362Z,28.70
2018-06-10T12:20:30.171Z,28.40
2018-06-10T12:22:59.475Z,28.20
2018-06-10T12:25:28.764Z,28.20
2018-06-10T12:27:57.816Z,28.10
2018-06-10T12:30:26.848Z,28.20
2018-06-10T12:32:56.697Z,28.70
2018-06-10T12:35:25.964Z,29.10
2018-06-10T12:37:55.124Z,29.60
2018-06-10T12:40:24.943Z,29.80
2018-06-10T12:42:54.268Z,30.20
2018-06-10T12:45:23.475Z,30.50
2018-06-10T12:47:52.770Z,30.60
2018-06-10T12:50:22.204Z,30.20
2018-06-10T12:52:51.545Z,29.70
2018-06-10T12:55:20.734Z,29.40
2018-06-10T12:57:51.167Z,29.50
2018-06-10T13:00:20.400Z,29.90
2018-06-10T13:02:49.880Z,30.30
2018-06-10T13:05:19.718Z,30.70
2018-06-10T13:07:48.833Z,31.00
2018-06-10T13:10:18.063Z,31.10
2018-06-10T13:12:47.916Z,31.00
2018-06-10T13:15:17.155Z,30.60
2018-06-10T13:17:46.255Z,30.40
2018-06-10T13:20:15.399Z,29.80
2018-06-10T13:22:44.730Z,29.80
2018-06-10T13:25:14.044Z,29.70
2018-06-10T13:27:43.217Z,29.70
2018-06-10T13:30:12.508Z,29.70
2018-06-10T13:32:41.582Z,29.50
2018-06-10T13:35:12.134Z,29.40
2018-06-10T13:37:41.293Z,29.60
2018-06-10T13:40:10.772Z,29.90
2018-06-10T13:42:39.929Z,30.10
2018-06-10T13:45:09.086Z,29.90
2018-06-10T13:47:38.333Z,29.90
2018-06-10T13:50:07.657Z,29.70
2018-06-10T13:52:36.786Z,29.60
2018-06-10T13:55:05.909Z,29.60
2018-06-10T13:57:35.350Z,29.60
2018-06-10T14:00:04.725Z,29.60
2018-06-10T14:02:33.914Z,29.50
2018-06-10T14:05:03.416Z,29.40
2018-06-10T14:07:32.521Z,29.50
2018-06-10T14:10:01.733Z,29.50
2018-06-10T14:12:31.338Z,29.30
2018-06-10T14:15:00.647Z,29.10
2018-06-10T14:17:29.963Z,28.90
2018-06-10T14:19:59.155Z,28.80
2018-06-10T14:22:28.405Z,28.80
2018-06-10T14:24:57.609Z,28.80
2018-06-10T14:27:26.972Z,29.00
2018-06-10T14:29:56.132Z,28.80
2018-06-10T14:32:25.224Z,28.80
2018-06-10T14:34:54.896Z,28.80
2018-06-10T14:37:25.700Z,28.80
2018-06-10T14:39:54.917Z,28.80
2018-06-10T14:42:24.043Z,28.90
2018-06-10T14:44:53.395Z,29.10
2018-06-10T14:47:22.548Z,29.30
2018-06-10T14:49:52.443Z,29.30
2018-06-10T14:52:21.772Z,29.10
2018-06-10T14:54:50.915Z,28.90
2018-06-10T14:57:20.109Z,28.90
2018-06-10T14:59:49.380Z,28.90
2018-06-10T15:02:18.565Z,29.10
2018-06-10T15:04:47.835Z,29.80
2018-06-10T15:07:16.920Z,29.90
2018-06-10T15:09:46.239Z,29.90
2018-06-10T15:12:15.495Z,30.00
2018-06-10T15:14:45.029Z,30.50
2018-06-10T15:17:14.096Z,30.90
2018-06-10T15:19:43.144Z,31.10
2018-06-10T15:22:12.256Z,31.10
2018-06-10T15:24:41.614Z,30.80
2018-06-10T15:27:10.746Z,31.00
2018-06-10T15:29:40.394Z,31.70
2018-06-10T15:32:09.688Z,32.40
2018-06-10T15:34:38.884Z,32.50
2018-06-10T15:37:07.934Z,32.60
2018-06-10T15:39:37.204Z,32.10
2018-06-10T15:42:07.038Z,31.60
2018-06-10T15:44:36.381Z,31.10
2018-06-10T15:47:05.613Z,30.90
2018-06-10T15:49:34.785Z,31.10
2018-06-10T15:52:03.862Z,31.70
2018-06-10T15:54:33.202Z,31.90
2018-06-10T15:57:02.349Z,32.20
2018-06-10T15:59:31.886Z,32.80
2018-06-10T16:02:01.219Z,33.40
2018-06-10T16:04:31.228Z,33.20
2018-06-10T16:07:00.255Z,33.20
2018-06-10T16:09:30.025Z,32.80
2018-06-10T16:11:59.073Z,32.60
2018-06-10T16:14:28.313Z,32.90
2018-06-10T16:16:57.503Z,33.10
2018-06-10T16:19:26.802Z,32.80
2018-06-10T16:21:55.989Z,32.60
2018-06-10T16:24:25.265Z,32.60
2018-06-10T16:26:54.382Z,32.60
2018-06-10T16:29:23.865Z,32.20
2018-06-10T16:31:52.921Z,31.80
2018-06-10T16:34:22.217Z,32.20
2018-06-10T16:36:51.481Z,32.10
2018-06-10T16:39:20.786Z,31.90
2018-06-10T16:41:50.078Z,31.70
2018-06-10T16:44:19.387Z,32.00
2018-06-10T16:46:48.623Z,32.60
2018-06-10T16:49:17.712Z,32.70
2018-06-10T16:51:47.913Z,32.50
2018-06-10T16:54:17.146Z,32.50
2018-06-10T16:56:46.289Z,32.30
2018-06-10T16:59:15.390Z,32.10
2018-06-10T17:01:44.556Z,31.80
2018-06-10T17:04:13.788Z,31.80
2018-06-10T17:06:42.982Z,31.60
2018-06-10T17:09:12.244Z,31.50
2018-06-10T17:11:41.337Z,31.80
2018-06-10T17:14:10.663Z,31.90
2018-06-10T17:16:39.883Z,31.80
2018-06-10T17:19:10.658Z,31.80
2018-06-10T17:21:39.769Z,31.50
2018-06-10T17:24:08.884Z,31.30
2018-06-10T17:26:38.130Z,31.20
2018-06-10T17:29:07.465Z,31.30
2018-06-10T17:31:36.513Z,31.40
2018-06-10T17:34:06.833Z,31.50
2018-06-10T17:36:36.264Z,31.60
2018-06-10T17:39:07.566Z,31.50
2018-06-10T17:41:36.778Z,31.60
2018-06-10T17:44:05.856Z,31.30
2018-06-10T17:46:35.544Z,30.90
2018-06-10T17:49:04.686Z,30.50
2018-06-10T17:51:33.819Z,30.20
2018-06-10T17:54:03.056Z,30.00
2018-06-10T17:56:32.339Z,29.90
2018-06-10T17:59:01.465Z,29.70
2018-06-10T18:01:30.786Z,29.50
2018-06-10T18:06:29.328Z,29.40
2018-06-10T18:08:58.512Z,29.30
2018-06-10T18:11:27.973Z,29.10
2018-06-10T18:13:57.246Z,28.80
2018-06-10T18:16:26.407Z,28.50
2018-06-10T18:18:55.567Z,28.30
2018-06-10T18:21:24.640Z,28.10
2018-06-10T18:23:53.825Z,27.90
2018-06-10T18:26:22.988Z,27.60
2018-06-10T18:28:52.566Z,27.40
2018-06-10T18:31:22.570Z,27.00
2018-06-10T18:33:51.761Z,26.80
2018-06-10T18:36:21.815Z,26.60
2018-06-10T18:38:51.810Z,26.50
2018-06-10T18:41:20.959Z,26.40
2018-06-10T18:43:50.211Z,26.30
2018-06-10T18:46:20.161Z,26.20
2018-06-10T18:48:52.146Z,26.10
2018-06-10T18:51:21.373Z,26.00
2018-06-10T18:53:51.734Z,25.80
2018-06-10T18:56:21.227Z,25.70
2018-06-10T18:58:50.452Z,25.60
2018-06-10T19:01:19.554Z,25.40
2018-06-10T19:03:48.713Z,25.20
2018-06-10T19:06:17.807Z,25.10
2018-06-10T19:08:47.125Z,24.90
2018-06-10T19:11:17.440Z,24.70
2018-06-10T19:13:46.645Z,24.70
2018-06-10T19:16:16.195Z,24.60
2018-06-10T19:18:46.486Z,24.40
2018-06-10T19:21:16.179Z,24.30
2018-06-10T19:23:47.763Z,24.30
2018-06-10T19:26:17.088Z,24.20
2018-06-10T19:28:46.239Z,24.20
2018-06-10T19:31:15.468Z,24.10
2018-06-10T19:33:46.689Z,24.20
2018-06-10T19:38:45.526Z,24.00
2018-06-10T19:41:15.426Z,24.00
2018-06-10T19:43:45.727Z,24.00
2018-06-10T19:48:43.711Z,23.80
2018-06-10T19:51:14.319Z,23.80
2018-06-10T19:53:44.662Z,23.70
2018-06-10T19:56:15.483Z,23.60
2018-06-10T19:58:44.792Z,23.50
2018-06-10T20:03:44.471Z,23.30
2018-06-10T20:06:15.172Z,23.20
2018-06-10T20:08:44.365Z,23.10
2018-06-10T20:11:14.394Z,23.10
2018-06-10T20:13:43.984Z,23.00
2018-06-10T20:16:14.108Z,22.90
2018-06-10T20:18:45.225Z,22.80
2018-06-10T20:21:16.150Z,22.60
2018-06-10T20:23:46.261Z,22.50
2018-06-10T20:26:16.626Z,22.40
2018-06-10T20:28:45.815Z,22.30
2018-06-10T20:31:15.053Z,22.30
2018-06-10T20:33:44.212Z,22.20
2018-06-10T20:36:14.850Z,22.20
2018-06-10T20:38:44.105Z,22.10
2018-06-10T20:41:14.478Z,22.10
2018-06-10T20:43:45.773Z,22.00
2018-06-10T20:46:15.907Z,21.90
2018-06-10T20:48:46.153Z,21.80
2018-06-10T20:51:15.424Z,21.70
2018-06-10T20:53:46.324Z,21.70
2018-06-10T20:56:16.312Z,21.60
2018-06-10T20:58:45.569Z,21.60
2018-06-10T21:01:15.847Z,21.50
2018-06-10T21:03:45.957Z,21.40
2018-06-10T21:06:15.915Z,21.40
2018-06-10T21:08:46.072Z,21.30
2018-06-10T21:11:15.729Z,21.30
2018-06-10T21:16:15.533Z,21.30
2018-06-10T21:18:45.892Z,21.20
2018-06-10T21:21:15.965Z,21.10
2018-06-10T21:23:45.337Z,21.10
2018-06-10T21:26:15.601Z,21.10
2018-06-10T21:28:45.732Z,21.10
2018-06-10T21:33:45.572Z,21.00
2018-06-10T21:38:45.227Z,20.90
2018-06-10T21:41:15.464Z,20.90
2018-06-10T21:43:44.747Z,20.80
2018-06-10T21:46:14.094Z,20.80
2018-06-10T21:48:49.956Z,20.80
2018-06-10T21:51:19.402Z,20.70
2018-06-10T21:53:49.570Z,20.60
2018-06-10T21:56:20.580Z,20.50
2018-06-10T21:58:50.010Z,20.50
2018-06-10T22:01:20.583Z,20.40
2018-06-10T22:03:51.567Z,20.30
2018-06-10T22:06:23.044Z,20.20
2018-06-10T22:08:53.156Z,20.20
2018-06-10T22:11:22.275Z,20.20
2018-06-10T22:13:52.283Z,20.10
2018-06-10T22:16:21.471Z,20.10
2018-06-10T22:18:50.765Z,19.90
2018-06-10T22:21:20.498Z,19.90
2018-06-10T22:23:51.554Z,19.90
2018-06-10T22:26:20.836Z,19.80
2018-06-10T22:28:50.148Z,19.80
2018-06-10T22:33:47.985Z,19.70
2018-06-10T22:36:17.838Z,19.60
2018-06-10T22:38:48.851Z,19.60
2018-06-10T22:41:19.745Z,19.50
2018-06-10T22:43:50.203Z,19.40
2018-06-10T22:46:19.412Z,19.40
2018-06-10T22:48:50.261Z,19.40
2018-06-10T22:51:21.035Z,19.30
2018-06-10T22:54:54.486Z,19.30
2018-06-10T22:57:24.739Z,19.20
2018-06-10T22:59:55.002Z,19.20
2018-06-10T23:02:25.203Z,19.10
2018-06-10T23:04:55.282Z,19.10
2018-06-10T23:09:54.432Z,19.00
2018-06-10T23:12:23.987Z,19.00
2018-06-10T23:14:53.290Z,19.00
2018-06-10T23:17:22.440Z,19.00
2018-06-10T23:19:52.776Z,19.00
2018-06-10T23:22:21.865Z,19.00
2018-06-10T23:24:51.021Z,19.00
2018-06-10T23:27:21.957Z,19.00
2018-06-10T23:29:52.642Z,19.00
2018-06-10T23:32:21.809Z,19.00
2018-06-10T23:34:52.510Z,19.00
2018-06-10T23:37:21.841Z,19.00
2018-06-10T23:39:50.993Z,18.90
2018-06-10T23:42:20.802Z,19.00
2018-06-10T23:44:50.891Z,18.90
2018-06-10T23:47:21.086Z,18.80
2018-06-10T23:49:51.140Z,18.80
2018-06-10T23:52:21.392Z,18.80
2018-06-10T23:54:51.512Z,18.70
2018-06-10T23:57:21.774Z,18.70
